Terminal Aerodrome Forecast
Issued by NWS

Home | Current Version | Previous Version | Text Only | Print | Product List | Glossary On
Versions: 1 2 3 4 5 6 7 8 9 10 11 12 13 14 15
000
FTUS44 KLZK 231144
TAFPBF
TAF
KPBF 231144Z 2312/2412 24010G18KT P6SM SCT007 OVC015
      TEMPO 2312/2315 5SM -SHRA BR BKN007
     FM231500 23010G18KT P6SM VCSH SCT012 OVC020
     FM232000 24009G16KT P6SM -SHRA VCTS SCT025CB BKN060
     FM240200 VRB04KT P6SM VCSH SCT060 BKN100=

USA.gov is the U.S. government's official web portal to all federal, state and local government web resources and services.